Terminal Aerodrome Forecast
Issued by NWS Austin/San Antonio, TX

Home | Current Version | Previous Version | Text Only | Print | Product List | Glossary On
Versions: 1 2 3 4 5 6 7 8 9 10 11 12 13 14 15 16
000
FTUS44 KEWX 262320
TAFAUS
TAF
KAUS 262320Z 2700/2806 11003KT P6SM SCT035 SCT200
      TEMPO 2711/2715 BKN012
     FM271500 VRB03KT P6SM SCT028 SCT250
     FM272000 09006KT P6SM BKN040 BKN250=

USA.gov is the U.S. government's official web portal to all federal, state and local government web resources and services.